sensor_id;sensor_type;location;lat;lon;timestamp;temperature;humidity
26589;DHT22;14235;48.532;8.722;2023-04-07T00:01:20;7.80;99.90
26589;DHT22;14235;48.532;8.722;2023-04-07T00:03:46;7.80;99.90
26589;DHT22;14235;48.532;8.722;2023-04-07T00:06:12;8.10;99.90
26589;DHT22;14235;48.532;8.722;2023-04-07T00:08:38;7.80;99.90
26589;DHT22;14235;48.532;8.722;2023-04-07T00:11:04;7.80;99.90
26589;DHT22;14235;48.532;8.722;2023-04-07T00:13:29;7.80;99.90
26589;DHT22;14235;48.532;8.722;2023-04-07T00:15:55;7.80;99.90
26589;DHT22;14235;48.532;8.722;2023-04-07T00:18:21;7.60;99.90
26589;DHT22;14235;48.532;8.722;2023-04-07T00:20:46;7.60;99.90
26589;DHT22;14235;48.532;8.722;2023-04-07T00:23:12;7.20;99.90
26589;DHT22;14235;48.532;8.722;2023-04-07T00:25:38;7.60;99.90
26589;DHT22;14235;48.532;8.722;2023-04-07T00:28:03;7.60;99.90
26589;DHT22;14235;48.532;8.722;2023-04-07T00:30:29;7.50;99.90
26589;DHT22;14235;48.532;8.722;2023-04-07T00:32:54;7.50;99.90
26589;DHT22;14235;48.532;8.722;2023-04-07T00:35:22;7.30;99.90
26589;DHT22;14235;48.532;8.722;2023-04-07T00:37:48;7.40;99.90
26589;DHT22;14235;48.532;8.722;2023-04-07T00:40:13;7.40;99.90
26589;DHT22;14235;48.532;8.722;2023-04-07T00:42:39;7.30;99.90
26589;DHT22;14235;48.532;8.722;2023-04-07T00:47:31;7.10;99.90
26589;DHT22;14235;48.532;8.722;2023-04-07T00:49:56;7.00;99.90
26589;DHT22;14235;48.532;8.722;2023-04-07T00:52:23;7.20;99.90
26589;DHT22;14235;48.532;8.722;2023-04-07T00:54:54;7.20;99.90
26589;DHT22;14235;48.532;8.722;2023-04-07T00:57:20;7.30;99.90
26589;DHT22;14235;48.532;8.722;2023-04-07T00:59:50;7.40;99.90
26589;DHT22;14235;48.532;8.722;2023-04-07T01:02:22;7.40;99.90
26589;DHT22;14235;48.532;8.722;2023-04-07T01:05:02;7.40;99.90
26589;DHT22;14235;48.532;8.722;2023-04-07T01:07:54;7.50;99.90
26589;DHT22;14235;48.532;8.722;2023-04-07T01:10:32;7.40;99.90
26589;DHT22;14235;48.532;8.722;2023-04-07T01:15:38;7.40;99.90
26589;DHT22;14235;48.532;8.722;2023-04-07T01:18:20;7.40;99.90
26589;DHT22;14235;48.532;8.722;2023-04-07T01:20:49;7.50;99.90
26589;DHT22;14235;48.532;8.722;2023-04-07T01:23:51;7.50;99.90
26589;DHT22;14235;48.532;8.722;2023-04-07T01:26:28;7.50;99.90
26589;DHT22;14235;48.532;8.722;2023-04-07T01:29:03;7.40;99.90
26589;DHT22;14235;48.532;8.722;2023-04-07T01:31:32;7.40;99.90
26589;DHT22;14235;48.532;8.722;2023-04-07T01:34:00;7.40;99.90
26589;DHT22;14235;48.532;8.722;2023-04-07T01:36:28;7.50;99.90
26589;DHT22;14235;48.532;8.722;2023-04-07T01:38:57;7.50;99.90
26589;DHT22;14235;48.532;8.722;2023-04-07T01:41:24;7.50;99.90
26589;DHT22;14235;48.532;8.722;2023-04-07T01:43:50;7.50;99.90
26589;DHT22;14235;48.532;8.722;2023-04-07T01:46:16;7.50;99.90
26589;DHT22;14235;48.532;8.722;2023-04-07T01:48:42;7.30;99.90
26589;DHT22;14235;48.532;8.722;2023-04-07T01:51:08;7.40;99.90
26589;DHT22;14235;48.532;8.722;2023-04-07T01:53:37;7.40;99.90
26589;DHT22;14235;48.532;8.722;2023-04-07T01:56:03;7.40;99.90
26589;DHT22;14235;48.532;8.722;2023-04-07T01:58:30;7.30;99.90
26589;DHT22;14235;48.532;8.722;2023-04-07T02:00:55;7.30;99.90
26589;DHT22;14235;48.532;8.722;2023-04-07T02:06:22;7.20;99.90
26589;DHT22;14235;48.532;8.722;2023-04-07T02:08:53;6.80;99.90
26589;DHT22;14235;48.532;8.722;2023-04-07T02:11:21;6.90;99.90
26589;DHT22;14235;48.532;8.722;2023-04-07T02:13:48;6.90;99.90
26589;DHT22;14235;48.532;8.722;2023-04-07T02:16:16;6.80;99.90
26589;DHT22;14235;48.532;8.722;2023-04-07T02:18:43;6.90;99.90
26589;DHT22;14235;48.532;8.722;2023-04-07T02:21:11;6.90;99.90
26589;DHT22;14235;48.532;8.722;2023-04-07T02:23:39;7.00;99.90
26589;DHT22;14235;48.532;8.722;2023-04-07T02:26:05;7.70;99.90
26589;DHT22;14235;48.532;8.722;2023-04-07T02:28:30;7.10;99.90
26589;DHT22;14235;48.532;8.722;2023-04-07T02:30:56;7.10;99.90
26589;DHT22;14235;48.532;8.722;2023-04-07T02:33:22;7.20;99.90
26589;DHT22;14235;48.532;8.722;2023-04-07T02:35:47;7.10;99.90
26589;DHT22;14235;48.532;8.722;2023-04-07T02:38:13;7.20;99.90
26589;DHT22;14235;48.532;8.722;2023-04-07T02:40:38;7.60;99.90
26589;DHT22;14235;48.532;8.722;2023-04-07T02:43:04;7.20;99.90
26589;DHT22;14235;48.532;8.722;2023-04-07T02:45:30;7.20;99.90
26589;DHT22;14235;48.532;8.722;2023-04-07T02:47:55;7.20;99.90
26589;DHT22;14235;48.532;8.722;2023-04-07T02:50:21;7.20;99.90
26589;DHT22;14235;48.532;8.722;2023-04-07T02:52:46;7.20;99.90
26589;DHT22;14235;48.532;8.722;2023-04-07T02:55:12;7.10;99.90
26589;DHT22;14235;48.532;8.722;2023-04-07T02:57:38;7.10;99.90
26589;DHT22;14235;48.532;8.722;2023-04-07T03:00:03;7.20;99.90
26589;DHT22;14235;48.532;8.722;2023-04-07T03:02:29;7.20;99.90
26589;DHT22;14235;48.532;8.722;2023-04-07T03:04:55;7.50;99.90
26589;DHT22;14235;48.532;8.722;2023-04-07T03:07:21;7.10;99.90
26589;DHT22;14235;48.532;8.722;2023-04-07T03:09:46;7.00;99.90
26589;DHT22;14235;48.532;8.722;2023-04-07T03:14:38;6.90;99.90
26589;DHT22;14235;48.532;8.722;2023-04-07T03:17:03;6.90;99.90
26589;DHT22;14235;48.532;8.722;2023-04-07T03:19:29;7.00;99.90
26589;DHT22;14235;48.532;8.722;2023-04-07T03:21:54;7.00;99.90
26589;DHT22;14235;48.532;8.722;2023-04-07T03:24:20;7.00;99.90
26589;DHT22;14235;48.532;8.722;2023-04-07T03:26:46;6.90;99.90
26589;DHT22;14235;48.532;8.722;2023-04-07T03:29:12;6.80;99.90
26589;DHT22;14235;48.532;8.722;2023-04-07T03:31:37;6.70;99.90
26589;DHT22;14235;48.532;8.722;2023-04-07T03:34:03;6.80;99.90
26589;DHT22;14235;48.532;8.722;2023-04-07T03:36:29;6.70;99.90
26589;DHT22;14235;48.532;8.722;2023-04-07T03:38:56;7.20;99.90
26589;DHT22;14235;48.532;8.722;2023-04-07T03:41:22;6.80;99.90
26589;DHT22;14235;48.532;8.722;2023-04-07T03:43:47;6.80;99.90
26589;DHT22;14235;48.532;8.722;2023-04-07T03:46:13;6.80;99.90
26589;DHT22;14235;48.532;8.722;2023-04-07T03:48:39;6.90;99.90
26589;DHT22;14235;48.532;8.722;2023-04-07T03:51:05;6.80;99.90
26589;DHT22;14235;48.532;8.722;2023-04-07T03:53:31;6.90;99.90
26589;DHT22;14235;48.532;8.722;2023-04-07T03:55:56;6.70;99.90
26589;DHT22;14235;48.532;8.722;2023-04-07T03:58:22;6.70;99.90
26589;DHT22;14235;48.532;8.722;2023-04-07T04:00:48;6.70;99.90
26589;DHT22;14235;48.532;8.722;2023-04-07T04:03:13;6.80;99.90
26589;DHT22;14235;48.532;8.722;2023-04-07T04:05:39;6.90;99.90
26589;DHT22;14235;48.532;8.722;2023-04-07T04:08:05;6.50;99.90
26589;DHT22;14235;48.532;8.722;2023-04-07T04:10:31;6.70;99.90
26589;DHT22;14235;48.532;8.722;2023-04-07T04:12:56;6.70;99.90
26589;DHT22;14235;48.532;8.722;2023-04-07T04:15:25;7.60;99.90
26589;DHT22;14235;48.532;8.722;2023-04-07T04:17:50;6.70;99.90
26589;DHT22;14235;48.532;8.722;2023-04-07T04:20:16;6.70;99.90
26589;DHT22;14235;48.532;8.722;2023-04-07T04:22:42;6.80;99.90
26589;DHT22;14235;48.532;8.722;2023-04-07T04:25:08;6.50;99.90
26589;DHT22;14235;48.532;8.722;2023-04-07T04:27:33;6.40;99.90
26589;DHT22;14235;48.532;8.722;2023-04-07T04:29:59;6.40;99.90
26589;DHT22;14235;48.532;8.722;2023-04-07T04:32:24;6.30;99.90
26589;DHT22;14235;48.532;8.722;2023-04-07T04:34:50;6.40;99.90
26589;DHT22;14235;48.532;8.722;2023-04-07T04:37:16;6.40;99.90
26589;DHT22;14235;48.532;8.722;2023-04-07T04:39:41;6.30;99.90
26589;DHT22;14235;48.532;8.722;2023-04-07T04:42:07;6.30;99.90
26589;DHT22;14235;48.532;8.722;2023-04-07T04:44:33;6.30;99.90
26589;DHT22;14235;48.532;8.722;2023-04-07T04:46:58;6.40;99.90
26589;DHT22;14235;48.532;8.722;2023-04-07T04:49:24;6.40;99.90
26589;DHT22;14235;48.532;8.722;2023-04-07T04:51:49;6.50;99.90
26589;DHT22;14235;48.532;8.722;2023-04-07T04:54:15;6.40;99.90
26589;DHT22;14235;48.532;8.722;2023-04-07T04:56:41;6.40;99.90
26589;DHT22;14235;48.532;8.722;2023-04-07T04:59:07;6.40;99.90
26589;DHT22;14235;48.532;8.722;2023-04-07T05:01:33;6.40;99.90
26589;DHT22;14235;48.532;8.722;2023-04-07T05:03:58;6.30;99.90
26589;DHT22;14235;48.532;8.722;2023-04-07T05:06:24;6.40;99.90
26589;DHT22;14235;48.532;8.722;2023-04-07T05:08:49;6.40;99.90
26589;DHT22;14235;48.532;8.722;2023-04-07T05:11:15;6.40;99.90
26589;DHT22;14235;48.532;8.722;2023-04-07T05:13:40;6.40;99.90
26589;DHT22;14235;48.532;8.722;2023-04-07T05:16:06;6.40;99.90
26589;DHT22;14235;48.532;8.722;2023-04-07T05:18:32;6.40;99.90
26589;DHT22;14235;48.532;8.722;2023-04-07T05:20:57;6.30;99.90
26589;DHT22;14235;48.532;8.722;2023-04-07T05:23:23;6.30;99.90
26589;DHT22;14235;48.532;8.722;2023-04-07T05:25:49;6.40;99.90
26589;DHT22;14235;48.532;8.722;2023-04-07T05:28:15;6.30;99.90
26589;DHT22;14235;48.532;8.722;2023-04-07T05:30:40;6.30;99.90
26589;DHT22;14235;48.532;8.722;2023-04-07T05:33:06;6.20;99.90
26589;DHT22;14235;48.532;8.722;2023-04-07T05:35:31;6.20;99.90
26589;DHT22;14235;48.532;8.722;2023-04-07T05:37:57;6.20;99.90
26589;DHT22;14235;48.532;8.722;2023-04-07T05:40:22;6.10;99.90
26589;DHT22;14235;48.532;8.722;2023-04-07T05:42:48;6.10;99.90
26589;DHT22;14235;48.532;8.722;2023-04-07T05:45:14;6.00;99.90
26589;DHT22;14235;48.532;8.722;2023-04-07T05:47:40;6.20;99.90
26589;DHT22;14235;48.532;8.722;2023-04-07T05:50:06;6.10;99.90
26589;DHT22;14235;48.532;8.722;2023-04-07T05:52:32;6.00;99.90
26589;DHT22;14235;48.532;8.722;2023-04-07T05:54:57;5.90;99.90
26589;DHT22;14235;48.532;8.722;2023-04-07T05:57:23;6.00;99.90
26589;DHT22;14235;48.532;8.722;2023-04-07T05:59:49;6.10;99.90
26589;DHT22;14235;48.532;8.722;2023-04-07T06:02:14;5.90;99.90
26589;DHT22;14235;48.532;8.722;2023-04-07T06:04:40;6.00;99.90
26589;DHT22;14235;48.532;8.722;2023-04-07T06:07:06;6.10;99.90
26589;DHT22;14235;48.532;8.722;2023-04-07T06:09:31;6.20;99.90
26589;DHT22;14235;48.532;8.722;2023-04-07T06:11:57;6.30;99.90
26589;DHT22;14235;48.532;8.722;2023-04-07T06:14:23;6.30;99.90
26589;DHT22;14235;48.532;8.722;2023-04-07T06:16:48;6.20;99.90
26589;DHT22;14235;48.532;8.722;2023-04-07T06:19:14;6.40;99.90
26589;DHT22;14235;48.532;8.722;2023-04-07T06:21:40;6.40;99.90
26589;DHT22;14235;48.532;8.722;2023-04-07T06:24:06;6.50;99.90
26589;DHT22;14235;48.532;8.722;2023-04-07T06:26:32;6.50;99.90
26589;DHT22;14235;48.532;8.722;2023-04-07T06:28:58;6.60;99.90
26589;DHT22;14235;48.532;8.722;2023-04-07T06:31:24;6.60;99.90
26589;DHT22;14235;48.532;8.722;2023-04-07T06:33:50;6.60;99.90
26589;DHT22;14235;48.532;8.722;2023-04-07T06:36:16;6.80;99.90
26589;DHT22;14235;48.532;8.722;2023-04-07T06:38:41;6.70;99.90
26589;DHT22;14235;48.532;8.722;2023-04-07T06:41:07;6.70;99.90
26589;DHT22;14235;48.532;8.722;2023-04-07T06:43:36;6.70;99.90
26589;DHT22;14235;48.532;8.722;2023-04-07T06:46:01;6.80;99.90
26589;DHT22;14235;48.532;8.722;2023-04-07T06:48:27;6.80;99.90
26589;DHT22;14235;48.532;8.722;2023-04-07T06:50:53;6.80;99.90
26589;DHT22;14235;48.532;8.722;2023-04-07T06:53:18;6.90;99.90
26589;DHT22;14235;48.532;8.722;2023-04-07T06:55:44;6.90;99.90
26589;DHT22;14235;48.532;8.722;2023-04-07T06:58:09;6.90;99.90
26589;DHT22;14235;48.532;8.722;2023-04-07T07:00:35;6.90;99.90
26589;DHT22;14235;48.532;8.722;2023-04-07T07:03:01;7.00;99.90
26589;DHT22;14235;48.532;8.722;2023-04-07T07:05:27;7.00;99.90
26589;DHT22;14235;48.532;8.722;2023-04-07T07:07:53;7.10;99.90
26589;DHT22;14235;48.532;8.722;2023-04-07T07:10:18;7.10;99.90
26589;DHT22;14235;48.532;8.722;2023-04-07T07:12:50;7.20;99.90
26589;DHT22;14235;48.532;8.722;2023-04-07T07:15:16;7.30;99.90
26589;DHT22;14235;48.532;8.722;2023-04-07T07:17:42;7.30;99.90
26589;DHT22;14235;48.532;8.722;2023-04-07T07:20:09;7.40;99.90
26589;DHT22;14235;48.532;8.722;2023-04-07T07:22:34;7.60;99.90
26589;DHT22;14235;48.532;8.722;2023-04-07T07:25:00;7.70;99.90
26589;DHT22;14235;48.532;8.722;2023-04-07T07:27:26;7.80;99.90
26589;DHT22;14235;48.532;8.722;2023-04-07T07:29:51;7.90;99.90
26589;DHT22;14235;48.532;8.722;2023-04-07T07:32:17;8.00;99.90
26589;DHT22;14235;48.532;8.722;2023-04-07T07:34:42;8.10;99.90
26589;DHT22;14235;48.532;8.722;2023-04-07T07:37:08;8.10;99.90
26589;DHT22;14235;48.532;8.722;2023-04-07T07:39:33;8.20;99.90
26589;DHT22;14235;48.532;8.722;2023-04-07T07:41:59;8.20;99.90
26589;DHT22;14235;48.532;8.722;2023-04-07T07:44:25;8.30;99.90
26589;DHT22;14235;48.532;8.722;2023-04-07T07:46:51;8.30;99.90
26589;DHT22;14235;48.532;8.722;2023-04-07T07:49:17;8.40;99.90
26589;DHT22;14235;48.532;8.722;2023-04-07T07:51:42;8.40;99.90
26589;DHT22;14235;48.532;8.722;2023-04-07T07:54:08;8.50;99.90
26589;DHT22;14235;48.532;8.722;2023-04-07T07:56:34;8.50;99.90
26589;DHT22;14235;48.532;8.722;2023-04-07T07:59:00;8.50;99.90
26589;DHT22;14235;48.532;8.722;2023-04-07T08:01:25;8.60;99.90
26589;DHT22;14235;48.532;8.722;2023-04-07T08:03:51;8.60;99.90
26589;DHT22;14235;48.532;8.722;2023-04-07T08:06:17;8.70;99.90
26589;DHT22;14235;48.532;8.722;2023-04-07T08:08:42;8.80;99.90
26589;DHT22;14235;48.532;8.722;2023-04-07T08:11:08;8.90;99.90
26589;DHT22;14235;48.532;8.722;2023-04-07T08:13:34;9.00;99.90
26589;DHT22;14235;48.532;8.722;2023-04-07T08:15:59;9.10;99.90
26589;DHT22;14235;48.532;8.722;2023-04-07T08:18:25;9.20;99.90
26589;DHT22;14235;48.532;8.722;2023-04-07T08:20:50;9.20;99.90
26589;DHT22;14235;48.532;8.722;2023-04-07T08:23:17;9.30;99.90
26589;DHT22;14235;48.532;8.722;2023-04-07T08:25:42;9.40;99.90
26589;DHT22;14235;48.532;8.722;2023-04-07T08:28:08;9.50;99.90
26589;DHT22;14235;48.532;8.722;2023-04-07T08:30:33;9.60;99.90
26589;DHT22;14235;48.532;8.722;2023-04-07T08:32:59;9.70;99.90
26589;DHT22;14235;48.532;8.722;2023-04-07T08:35:25;9.80;99.90
26589;DHT22;14235;48.532;8.722;2023-04-07T08:37:50;9.90;99.90
26589;DHT22;14235;48.532;8.722;2023-04-07T08:40:16;9.90;99.90
26589;DHT22;14235;48.532;8.722;2023-04-07T08:42:45;10.00;99.90
26589;DHT22;14235;48.532;8.722;2023-04-07T08:45:12;10.10;99.90
26589;DHT22;14235;48.532;8.722;2023-04-07T08:47:39;10.20;99.90
26589;DHT22;14235;48.532;8.722;2023-04-07T08:50:07;10.40;99.90
26589;DHT22;14235;48.532;8.722;2023-04-07T08:55:03;10.40;99.90
26589;DHT22;14235;48.532;8.722;2023-04-07T08:57:31;10.50;99.90
26589;DHT22;14235;48.532;8.722;2023-04-07T08:59:58;10.60;99.90
26589;DHT22;14235;48.532;8.722;2023-04-07T09:02:29;10.60;99.90
26589;DHT22;14235;48.532;8.722;2023-04-07T09:04:55;10.70;99.90
26589;DHT22;14235;48.532;8.722;2023-04-07T09:07:21;10.80;99.90
26589;DHT22;14235;48.532;8.722;2023-04-07T09:09:47;10.90;99.90
26589;DHT22;14235;48.532;8.722;2023-04-07T09:12:12;10.90;99.90
26589;DHT22;14235;48.532;8.722;2023-04-07T09:14:38;10.90;99.50
26589;DHT22;14235;48.532;8.722;2023-04-07T09:17:03;10.90;98.30
26589;DHT22;14235;48.532;8.722;2023-04-07T09:19:29;10.90;99.50
26589;DHT22;14235;48.532;8.722;2023-04-07T09:21:55;10.70;99.90
26589;DHT22;14235;48.532;8.722;2023-04-07T09:26:47;10.40;99.90
26589;DHT22;14235;48.532;8.722;2023-04-07T09:29:18;10.30;99.90
26589;DHT22;14235;48.532;8.722;2023-04-07T09:31:45;10.20;99.90
26589;DHT22;14235;48.532;8.722;2023-04-07T09:34:27;10.10;99.90
26589;DHT22;14235;48.532;8.722;2023-04-07T09:36:53;10.10;99.90
26589;DHT22;14235;48.532;8.722;2023-04-07T09:39:19;10.10;99.90
26589;DHT22;14235;48.532;8.722;2023-04-07T09:41:45;10.00;99.90
26589;DHT22;14235;48.532;8.722;2023-04-07T09:44:10;10.00;99.90
26589;DHT22;14235;48.532;8.722;2023-04-07T09:46:50;10.00;99.90
26589;DHT22;14235;48.532;8.722;2023-04-07T09:49:16;10.00;99.90
26589;DHT22;14235;48.532;8.722;2023-04-07T09:52:03;9.90;99.90
26589;DHT22;14235;48.532;8.722;2023-04-07T09:54:39;10.00;99.90
26589;DHT22;14235;48.532;8.722;2023-04-07T09:57:07;10.00;99.90
26589;DHT22;14235;48.532;8.722;2023-04-07T09:59:39;10.00;99.90
26589;DHT22;14235;48.532;8.722;2023-04-07T10:02:07;10.00;99.90
26589;DHT22;14235;48.532;8.722;2023-04-07T10:04:33;10.10;99.90
26589;DHT22;14235;48.532;8.722;2023-04-07T10:06:59;10.10;99.90
26589;DHT22;14235;48.532;8.722;2023-04-07T10:09:29;10.20;99.90
26589;DHT22;14235;48.532;8.722;2023-04-07T10:11:56;10.30;99.90
26589;DHT22;14235;48.532;8.722;2023-04-07T10:14:26;10.40;99.90
26589;DHT22;14235;48.532;8.722;2023-04-07T10:16:52;10.50;99.90
26589;DHT22;14235;48.532;8.722;2023-04-07T10:19:18;10.60;99.90
26589;DHT22;14235;48.532;8.722;2023-04-07T10:21:44;10.70;99.90
26589;DHT22;14235;48.532;8.722;2023-04-07T10:26:46;10.90;99.90
26589;DHT22;14235;48.532;8.722;2023-04-07T10:29:16;10.90;99.90
26589;DHT22;14235;48.532;8.722;2023-04-07T10:31:42;11.00;99.90
26589;DHT22;14235;48.532;8.722;2023-04-07T10:34:08;11.00;99.90
26589;DHT22;14235;48.532;8.722;2023-04-07T10:36:34;11.10;99.90
26589;DHT22;14235;48.532;8.722;2023-04-07T10:44:02;11.20;99.90
26589;DHT22;14235;48.532;8.722;2023-04-07T10:49:14;11.10;99.90
26589;DHT22;14235;48.532;8.722;2023-04-07T10:51:41;10.90;99.90
26589;DHT22;14235;48.532;8.722;2023-04-07T10:54:17;11.10;99.90
26589;DHT22;14235;48.532;8.722;2023-04-07T10:59:27;11.10;99.90
26589;DHT22;14235;48.532;8.722;2023-04-07T11:04:37;11.10;99.90
26589;DHT22;14235;48.532;8.722;2023-04-07T11:07:03;11.10;99.90
26589;DHT22;14235;48.532;8.722;2023-04-07T11:09:29;11.20;99.90
26589;DHT22;14235;48.532;8.722;2023-04-07T11:11:55;11.20;99.90
26589;DHT22;14235;48.532;8.722;2023-04-07T11:14:27;11.30;99.90
26589;DHT22;14235;48.532;8.722;2023-04-07T11:16:53;11.40;99.90
26589;DHT22;14235;48.532;8.722;2023-04-07T11:19:19;11.40;99.90
26589;DHT22;14235;48.532;8.722;2023-04-07T11:21:44;11.50;99.90
26589;DHT22;14235;48.532;8.722;2023-04-07T11:24:27;11.50;99.90
26589;DHT22;14235;48.532;8.722;2023-04-07T11:26:55;11.80;99.90
26589;DHT22;14235;48.532;8.722;2023-04-07T11:29:30;11.60;99.90
26589;DHT22;14235;48.532;8.722;2023-04-07T11:31:57;11.80;99.90
26589;DHT22;14235;48.532;8.722;2023-04-07T11:34:29;11.90;99.90
26589;DHT22;14235;48.532;8.722;2023-04-07T11:36:55;12.20;99.90
26589;DHT22;14235;48.532;8.722;2023-04-07T11:39:25;12.00;99.90
26589;DHT22;14235;48.532;8.722;2023-04-07T11:41:59;12.10;99.90
26589;DHT22;14235;48.532;8.722;2023-04-07T11:44:25;12.30;97.40
26589;DHT22;14235;48.532;8.722;2023-04-07T11:46:55;12.40;97.60
26589;DHT22;14235;48.532;8.722;2023-04-07T11:49:22;12.70;97.50
26589;DHT22;14235;48.532;8.722;2023-04-07T11:52:03;13.60;98.60
26589;DHT22;14235;48.532;8.722;2023-04-07T11:54:41;12.80;96.80
26589;DHT22;14235;48.532;8.722;2023-04-07T11:57:07;13.00;98.00
26589;DHT22;14235;48.532;8.722;2023-04-07T11:59:34;13.40;97.40
26589;DHT22;14235;48.532;8.722;2023-04-07T12:02:00;12.50;95.40
26589;DHT22;14235;48.532;8.722;2023-04-07T12:04:26;12.50;95.40
26589;DHT22;14235;48.532;8.722;2023-04-07T12:06:51;12.50;96.20
26589;DHT22;14235;48.532;8.722;2023-04-07T12:09:33;12.20;96.40
26589;DHT22;14235;48.532;8.722;2023-04-07T12:12:06;12.30;98.00
26589;DHT22;14235;48.532;8.722;2023-04-07T12:14:32;12.00;98.90
26589;DHT22;14235;48.532;8.722;2023-04-07T12:16:58;12.40;98.20
26589;DHT22;14235;48.532;8.722;2023-04-07T12:19:26;11.80;99.30
26589;DHT22;14235;48.532;8.722;2023-04-07T12:21:53;11.70;99.10
26589;DHT22;14235;48.532;8.722;2023-04-07T12:24:18;11.50;99.40
26589;DHT22;14235;48.532;8.722;2023-04-07T12:26:44;11.50;98.60
26589;DHT22;14235;48.532;8.722;2023-04-07T12:29:10;11.40;99.40
26589;DHT22;14235;48.532;8.722;2023-04-07T12:31:36;11.40;99.10
26589;DHT22;14235;48.532;8.722;2023-04-07T12:34:02;11.30;99.90
26589;DHT22;14235;48.532;8.722;2023-04-07T12:36:27;11.30;99.90
26589;DHT22;14235;48.532;8.722;2023-04-07T12:38:54;11.10;99.80
26589;DHT22;14235;48.532;8.722;2023-04-07T12:41:20;11.20;99.60
26589;DHT22;14235;48.532;8.722;2023-04-07T12:43:46;11.20;99.60
26589;DHT22;14235;48.532;8.722;2023-04-07T12:46:11;11.70;99.30
26589;DHT22;14235;48.532;8.722;2023-04-07T12:48:37;11.30;99.90
26589;DHT22;14235;48.532;8.722;2023-04-07T12:51:03;11.60;99.10
26589;DHT22;14235;48.532;8.722;2023-04-07T12:53:28;11.30;98.70
26589;DHT22;14235;48.532;8.722;2023-04-07T12:55:54;11.40;97.60
26589;DHT22;14235;48.532;8.722;2023-04-07T12:58:21;11.30;96.50
26589;DHT22;14235;48.532;8.722;2023-04-07T13:00:46;11.40;97.10
26589;DHT22;14235;48.532;8.722;2023-04-07T13:03:12;11.40;97.20
26589;DHT22;14235;48.532;8.722;2023-04-07T13:05:38;11.60;97.00
26589;DHT22;14235;48.532;8.722;2023-04-07T13:08:04;11.50;96.90
26589;DHT22;14235;48.532;8.722;2023-04-07T13:10:30;12.40;98.00
26589;DHT22;14235;48.532;8.722;2023-04-07T13:12:55;11.50;99.00
26589;DHT22;14235;48.532;8.722;2023-04-07T13:17:47;11.60;95.30
26589;DHT22;14235;48.532;8.722;2023-04-07T13:20:13;11.60;96.40
26589;DHT22;14235;48.532;8.722;2023-04-07T13:22:38;11.50;96.40
26589;DHT22;14235;48.532;8.722;2023-04-07T13:25:04;11.40;96.10
26589;DHT22;14235;48.532;8.722;2023-04-07T13:27:30;11.50;95.20
26589;DHT22;14235;48.532;8.722;2023-04-07T13:29:56;11.40;96.10
26589;DHT22;14235;48.532;8.722;2023-04-07T13:32:21;11.20;98.40
26589;DHT22;14235;48.532;8.722;2023-04-07T13:34:47;11.20;98.50
26589;DHT22;14235;48.532;8.722;2023-04-07T13:37:13;11.10;97.90
26589;DHT22;14235;48.532;8.722;2023-04-07T13:39:39;11.10;98.20
26589;DHT22;14235;48.532;8.722;2023-04-07T13:42:04;11.00;98.90
26589;DHT22;14235;48.532;8.722;2023-04-07T13:44:31;11.00;98.40
26589;DHT22;14235;48.532;8.722;2023-04-07T13:46:57;11.00;98.30
26589;DHT22;14235;48.532;8.722;2023-04-07T13:49:23;10.80;98.30
26589;DHT22;14235;48.532;8.722;2023-04-07T13:51:48;11.00;98.70
26589;DHT22;14235;48.532;8.722;2023-04-07T13:54:15;10.70;99.20
26589;DHT22;14235;48.532;8.722;2023-04-07T13:56:41;10.70;99.10
26589;DHT22;14235;48.532;8.722;2023-04-07T13:59:07;11.00;99.20
26589;DHT22;14235;48.532;8.722;2023-04-07T14:01:33;10.70;99.30
26589;DHT22;14235;48.532;8.722;2023-04-07T14:04:00;10.70;99.50
26589;DHT22;14235;48.532;8.722;2023-04-07T14:06:27;10.60;99.60
26589;DHT22;14235;48.532;8.722;2023-04-07T14:08:53;10.70;99.20
26589;DHT22;14235;48.532;8.722;2023-04-07T14:11:19;10.60;99.00
26589;DHT22;14235;48.532;8.722;2023-04-07T14:13:46;10.60;99.10
26589;DHT22;14235;48.532;8.722;2023-04-07T14:16:12;10.60;98.80
26589;DHT22;14235;48.532;8.722;2023-04-07T14:18:38;10.70;99.20
26589;DHT22;14235;48.532;8.722;2023-04-07T14:21:04;11.40;99.80
26589;DHT22;14235;48.532;8.722;2023-04-07T14:23:30;10.70;99.60
26589;DHT22;14235;48.532;8.722;2023-04-07T14:25:57;10.70;99.50
26589;DHT22;14235;48.532;8.722;2023-04-07T14:28:22;10.60;99.10
26589;DHT22;14235;48.532;8.722;2023-04-07T14:30:48;10.90;99.10
26589;DHT22;14235;48.532;8.722;2023-04-07T14:33:14;10.70;99.00
26589;DHT22;14235;48.532;8.722;2023-04-07T14:35:42;11.50;99.10
26589;DHT22;14235;48.532;8.722;2023-04-07T14:38:08;10.70;98.50
26589;DHT22;14235;48.532;8.722;2023-04-07T14:40:34;10.70;98.80
26589;DHT22;14235;48.532;8.722;2023-04-07T14:43:04;10.40;98.80
26589;DHT22;14235;48.532;8.722;2023-04-07T14:45:31;10.60;99.00
26589;DHT22;14235;48.532;8.722;2023-04-07T14:47:57;10.70;98.60
26589;DHT22;14235;48.532;8.722;2023-04-07T14:50:22;10.70;98.10
26589;DHT22;14235;48.532;8.722;2023-04-07T14:52:49;10.80;97.90
26589;DHT22;14235;48.532;8.722;2023-04-07T14:55:15;10.70;98.50
26589;DHT22;14235;48.532;8.722;2023-04-07T15:00:07;10.70;96.30
26589;DHT22;14235;48.532;8.722;2023-04-07T15:02:34;10.80;96.50
26589;DHT22;14235;48.532;8.722;2023-04-07T15:05:01;10.80;96.40
26589;DHT22;14235;48.532;8.722;2023-04-07T15:07:26;10.60;96.50
26589;DHT22;14235;48.532;8.722;2023-04-07T15:09:52;10.70;96.00
26589;DHT22;14235;48.532;8.722;2023-04-07T15:12:18;11.10;96.10
26589;DHT22;14235;48.532;8.722;2023-04-07T15:14:44;11.00;96.10
26589;DHT22;14235;48.532;8.722;2023-04-07T15:17:10;10.80;96.10
26589;DHT22;14235;48.532;8.722;2023-04-07T15:19:36;10.80;96.40
26589;DHT22;14235;48.532;8.722;2023-04-07T15:22:02;10.80;96.70
26589;DHT22;14235;48.532;8.722;2023-04-07T15:24:27;10.90;96.90
26589;DHT22;14235;48.532;8.722;2023-04-07T15:26:53;10.70;97.00
26589;DHT22;14235;48.532;8.722;2023-04-07T15:29:18;10.70;97.30
26589;DHT22;14235;48.532;8.722;2023-04-07T15:31:44;10.80;97.40
26589;DHT22;14235;48.532;8.722;2023-04-07T15:34:10;10.70;97.60
26589;DHT22;14235;48.532;8.722;2023-04-07T15:36:35;10.70;97.90
26589;DHT22;14235;48.532;8.722;2023-04-07T15:39:04;11.10;98.30
26589;DHT22;14235;48.532;8.722;2023-04-07T15:41:31;10.90;98.20
26589;DHT22;14235;48.532;8.722;2023-04-07T15:44:03;10.90;98.30
26589;DHT22;14235;48.532;8.722;2023-04-07T15:46:28;10.80;98.00
26589;DHT22;14235;48.532;8.722;2023-04-07T15:48:56;10.90;97.80
26589;DHT22;14235;48.532;8.722;2023-04-07T15:51:22;10.70;97.60
26589;DHT22;14235;48.532;8.722;2023-04-07T15:53:47;10.80;98.10
26589;DHT22;14235;48.532;8.722;2023-04-07T15:56:13;10.80;98.20
26589;DHT22;14235;48.532;8.722;2023-04-07T15:58:39;10.60;98.30
26589;DHT22;14235;48.532;8.722;2023-04-07T16:01:04;10.70;98.40
26589;DHT22;14235;48.532;8.722;2023-04-07T16:03:30;10.60;98.60
26589;DHT22;14235;48.532;8.722;2023-04-07T16:05:56;10.50;99.90
26589;DHT22;14235;48.532;8.722;2023-04-07T16:08:22;10.40;99.90
26589;DHT22;14235;48.532;8.722;2023-04-07T16:10:48;10.30;99.90
26589;DHT22;14235;48.532;8.722;2023-04-07T16:13:13;11.90;99.90